sensor_id;sensor_type;location;lat;lon;timestamp;temperature;humidity
11025;DHT22;22890;51.820;8.682;2022-10-16T00:01:20;14.40;99.90
11025;DHT22;22890;51.820;8.682;2022-10-16T00:03:48;14.30;99.90
11025;DHT22;22890;51.820;8.682;2022-10-16T00:06:16;14.30;99.90
11025;DHT22;22890;51.820;8.682;2022-10-16T00:08:44;14.30;99.90
11025;DHT22;22890;51.820;8.682;2022-10-16T00:11:17;14.30;99.90
11025;DHT22;22890;51.820;8.682;2022-10-16T00:13:47;14.40;99.90
11025;DHT22;22890;51.820;8.682;2022-10-16T00:16:16;14.30;99.90
11025;DHT22;22890;51.820;8.682;2022-10-16T00:18:43;14.30;99.90
11025;DHT22;22890;51.820;8.682;2022-10-16T00:21:19;14.30;99.90
11025;DHT22;22890;51.820;8.682;2022-10-16T00:23:49;14.30;99.90
11025;DHT22;22890;51.820;8.682;2022-10-16T00:26:17;14.60;99.90
11025;DHT22;22890;51.820;8.682;2022-10-16T00:28:49;14.30;99.90
11025;DHT22;22890;51.820;8.682;2022-10-16T00:31:18;14.30;99.90
11025;DHT22;22890;51.820;8.682;2022-10-16T00:33:45;14.30;99.90
11025;DHT22;22890;51.820;8.682;2022-10-16T00:36:15;14.30;99.90
11025;DHT22;22890;51.820;8.682;2022-10-16T00:38:42;14.30;99.90
11025;DHT22;22890;51.820;8.682;2022-10-16T00:41:14;14.40;99.90
11025;DHT22;22890;51.820;8.682;2022-10-16T00:43:50;14.40;99.90
11025;DHT22;22890;51.820;8.682;2022-10-16T00:46:29;14.30;99.90
11025;DHT22;22890;51.820;8.682;2022-10-16T00:51:32;14.30;99.90
11025;DHT22;22890;51.820;8.682;2022-10-16T00:54:00;14.40;99.90
11025;DHT22;22890;51.820;8.682;2022-10-16T00:56:27;14.30;99.90
11025;DHT22;22890;51.820;8.682;2022-10-16T00:58:54;14.30;99.90
11025;DHT22;22890;51.820;8.682;2022-10-16T01:01:21;14.30;99.90
11025;DHT22;22890;51.820;8.682;2022-10-16T01:03:48;14.30;99.90
11025;DHT22;22890;51.820;8.682;2022-10-16T01:06:31;14.40;99.90
11025;DHT22;22890;51.820;8.682;2022-10-16T01:09:12;14.40;99.90
11025;DHT22;22890;51.820;8.682;2022-10-16T01:11:57;14.30;99.90
11025;DHT22;22890;51.820;8.682;2022-10-16T01:14:48;14.30;99.90
11025;DHT22;22890;51.820;8.682;2022-10-16T01:17:48;14.30;99.90
11025;DHT22;22890;51.820;8.682;2022-10-16T01:26:08;14.20;99.90
11025;DHT22;22890;51.820;8.682;2022-10-16T01:31:11;14.10;99.90
11025;DHT22;22890;51.820;8.682;2022-10-16T01:33:47;14.10;99.90
11025;DHT22;22890;51.820;8.682;2022-10-16T01:36:19;14.10;99.90
11025;DHT22;22890;51.820;8.682;2022-10-16T01:38:50;14.10;99.90
11025;DHT22;22890;51.820;8.682;2022-10-16T01:41:24;14.10;99.90
11025;DHT22;22890;51.820;8.682;2022-10-16T01:46:37;14.10;99.90
11025;DHT22;22890;51.820;8.682;2022-10-16T01:49:05;14.10;99.90
11025;DHT22;22890;51.820;8.682;2022-10-16T01:51:33;14.10;99.90
11025;DHT22;22890;51.820;8.682;2022-10-16T01:54:02;14.10;99.90
11025;DHT22;22890;51.820;8.682;2022-10-16T01:56:29;14.10;99.90
11025;DHT22;22890;51.820;8.682;2022-10-16T01:59:02;14.10;99.90
11025;DHT22;22890;51.820;8.682;2022-10-16T02:01:33;14.10;99.90
11025;DHT22;22890;51.820;8.682;2022-10-16T02:04:07;14.10;99.90
11025;DHT22;22890;51.820;8.682;2022-10-16T02:06:35;14.00;99.90
11025;DHT22;22890;51.820;8.682;2022-10-16T02:09:02;14.00;99.90
11025;DHT22;22890;51.820;8.682;2022-10-16T02:11:29;13.90;99.90
11025;DHT22;22890;51.820;8.682;2022-10-16T02:14:04;13.90;99.90
11025;DHT22;22890;51.820;8.682;2022-10-16T02:16:38;13.80;99.90
11025;DHT22;22890;51.820;8.682;2022-10-16T02:19:06;13.80;99.90
11025;DHT22;22890;51.820;8.682;2022-10-16T02:22:00;13.80;99.90
11025;DHT22;22890;51.820;8.682;2022-10-16T02:24:47;13.70;99.90
11025;DHT22;22890;51.820;8.682;2022-10-16T02:29:55;13.70;99.90
11025;DHT22;22890;51.820;8.682;2022-10-16T02:32:29;13.60;99.90
11025;DHT22;22890;51.820;8.682;2022-10-16T02:34:58;13.60;99.90
11025;DHT22;22890;51.820;8.682;2022-10-16T02:37:27;13.50;99.90
11025;DHT22;22890;51.820;8.682;2022-10-16T02:39:56;13.50;99.90
11025;DHT22;22890;51.820;8.682;2022-10-16T02:42:29;13.50;99.90
11025;DHT22;22890;51.820;8.682;2022-10-16T02:44:56;13.40;99.90
11025;DHT22;22890;51.820;8.682;2022-10-16T02:47:22;13.40;99.90
11025;DHT22;22890;51.820;8.682;2022-10-16T02:49:49;13.40;99.90
11025;DHT22;22890;51.820;8.682;2022-10-16T02:52:16;13.40;99.90
11025;DHT22;22890;51.820;8.682;2022-10-16T02:54:42;13.30;99.90
11025;DHT22;22890;51.820;8.682;2022-10-16T02:57:09;13.40;99.90
11025;DHT22;22890;51.820;8.682;2022-10-16T02:59:35;13.30;99.90
11025;DHT22;22890;51.820;8.682;2022-10-16T03:02:02;13.40;99.90
11025;DHT22;22890;51.820;8.682;2022-10-16T03:04:29;13.40;99.90
11025;DHT22;22890;51.820;8.682;2022-10-16T03:06:55;13.40;99.90
11025;DHT22;22890;51.820;8.682;2022-10-16T03:09:22;13.40;99.90
11025;DHT22;22890;51.820;8.682;2022-10-16T03:11:49;13.40;99.90
11025;DHT22;22890;51.820;8.682;2022-10-16T03:14:15;13.40;99.90
11025;DHT22;22890;51.820;8.682;2022-10-16T03:16:42;13.40;99.90
11025;DHT22;22890;51.820;8.682;2022-10-16T03:19:09;13.40;99.90
11025;DHT22;22890;51.820;8.682;2022-10-16T03:21:35;13.30;99.90
11025;DHT22;22890;51.820;8.682;2022-10-16T03:24:02;13.30;99.90
11025;DHT22;22890;51.820;8.682;2022-10-16T03:26:29;13.40;99.90
11025;DHT22;22890;51.820;8.682;2022-10-16T03:28:55;13.40;99.90
11025;DHT22;22890;51.820;8.682;2022-10-16T03:31:22;13.40;99.90
11025;DHT22;22890;51.820;8.682;2022-10-16T03:33:49;13.30;99.90
11025;DHT22;22890;51.820;8.682;2022-10-16T03:36:15;13.30;99.90
11025;DHT22;22890;51.820;8.682;2022-10-16T03:38:42;13.30;99.90
11025;DHT22;22890;51.820;8.682;2022-10-16T03:41:08;13.30;99.90
11025;DHT22;22890;51.820;8.682;2022-10-16T03:43:35;13.30;99.90
11025;DHT22;22890;51.820;8.682;2022-10-16T03:46:02;13.30;99.90
11025;DHT22;22890;51.820;8.682;2022-10-16T03:48:29;13.30;99.90
11025;DHT22;22890;51.820;8.682;2022-10-16T03:50:56;13.30;99.90
11025;DHT22;22890;51.820;8.682;2022-10-16T03:53:22;13.30;99.90
11025;DHT22;22890;51.820;8.682;2022-10-16T03:55:49;13.30;99.90
11025;DHT22;22890;51.820;8.682;2022-10-16T03:58:16;13.30;99.90
11025;DHT22;22890;51.820;8.682;2022-10-16T04:00:44;13.30;99.90
11025;DHT22;22890;51.820;8.682;2022-10-16T04:03:11;13.30;99.90
11025;DHT22;22890;51.820;8.682;2022-10-16T04:05:38;13.40;99.90
11025;DHT22;22890;51.820;8.682;2022-10-16T04:08:05;13.50;99.90
11025;DHT22;22890;51.820;8.682;2022-10-16T04:10:32;13.40;99.90
11025;DHT22;22890;51.820;8.682;2022-10-16T04:12:59;13.40;99.90
11025;DHT22;22890;51.820;8.682;2022-10-16T04:15:25;13.50;99.90
11025;DHT22;22890;51.820;8.682;2022-10-16T04:17:52;13.50;99.90
11025;DHT22;22890;51.820;8.682;2022-10-16T04:20:19;13.50;99.90
11025;DHT22;22890;51.820;8.682;2022-10-16T04:22:46;13.50;99.90
11025;DHT22;22890;51.820;8.682;2022-10-16T04:25:12;13.50;99.90
11025;DHT22;22890;51.820;8.682;2022-10-16T04:27:39;13.50;99.90
11025;DHT22;22890;51.820;8.682;2022-10-16T04:30:11;13.60;99.90
11025;DHT22;22890;51.820;8.682;2022-10-16T04:32:38;13.60;99.90
11025;DHT22;22890;51.820;8.682;2022-10-16T04:35:05;13.70;99.90
11025;DHT22;22890;51.820;8.682;2022-10-16T04:37:32;13.60;99.90
11025;DHT22;22890;51.820;8.682;2022-10-16T04:39:59;13.60;99.90
11025;DHT22;22890;51.820;8.682;2022-10-16T04:42:25;13.60;99.90
11025;DHT22;22890;51.820;8.682;2022-10-16T04:44:52;13.60;99.90
11025;DHT22;22890;51.820;8.682;2022-10-16T04:47:18;13.60;99.90
11025;DHT22;22890;51.820;8.682;2022-10-16T04:49:45;13.60;99.90
11025;DHT22;22890;51.820;8.682;2022-10-16T04:52:12;13.60;99.90
11025;DHT22;22890;51.820;8.682;2022-10-16T04:54:38;13.60;99.90
11025;DHT22;22890;51.820;8.682;2022-10-16T04:57:05;13.60;99.90
11025;DHT22;22890;51.820;8.682;2022-10-16T04:59:32;13.60;99.90
11025;DHT22;22890;51.820;8.682;2022-10-16T05:01:58;13.70;99.90
11025;DHT22;22890;51.820;8.682;2022-10-16T05:04:25;13.70;99.90
11025;DHT22;22890;51.820;8.682;2022-10-16T05:06:51;13.70;99.90
11025;DHT22;22890;51.820;8.682;2022-10-16T05:09:18;13.60;99.90
11025;DHT22;22890;51.820;8.682;2022-10-16T05:11:45;13.70;99.90
11025;DHT22;22890;51.820;8.682;2022-10-16T05:14:11;13.70;99.90
11025;DHT22;22890;51.820;8.682;2022-10-16T05:16:38;13.70;99.90
11025;DHT22;22890;51.820;8.682;2022-10-16T05:19:04;13.70;99.90
11025;DHT22;22890;51.820;8.682;2022-10-16T05:21:51;13.70;99.90
11025;DHT22;22890;51.820;8.682;2022-10-16T05:24:18;13.70;99.90
11025;DHT22;22890;51.820;8.682;2022-10-16T05:26:44;13.60;99.90
11025;DHT22;22890;51.820;8.682;2022-10-16T05:29:11;13.70;99.90
11025;DHT22;22890;51.820;8.682;2022-10-16T05:31:37;13.60;99.90
11025;DHT22;22890;51.820;8.682;2022-10-16T05:34:04;13.60;99.90
11025;DHT22;22890;51.820;8.682;2022-10-16T05:36:31;13.70;99.90
11025;DHT22;22890;51.820;8.682;2022-10-16T05:38:57;13.60;99.90
11025;DHT22;22890;51.820;8.682;2022-10-16T05:41:24;13.70;99.90
11025;DHT22;22890;51.820;8.682;2022-10-16T05:43:53;13.60;99.90
11025;DHT22;22890;51.820;8.682;2022-10-16T05:46:19;13.60;99.90
11025;DHT22;22890;51.820;8.682;2022-10-16T05:48:46;13.60;99.90
11025;DHT22;22890;51.820;8.682;2022-10-16T05:51:14;13.60;99.90
11025;DHT22;22890;51.820;8.682;2022-10-16T05:53:41;13.60;99.90
11025;DHT22;22890;51.820;8.682;2022-10-16T05:56:13;13.50;99.90
11025;DHT22;22890;51.820;8.682;2022-10-16T05:58:40;13.60;99.90
11025;DHT22;22890;51.820;8.682;2022-10-16T06:01:13;13.70;99.90
11025;DHT22;22890;51.820;8.682;2022-10-16T06:03:41;13.60;99.90
11025;DHT22;22890;51.820;8.682;2022-10-16T06:06:09;13.60;99.90
11025;DHT22;22890;51.820;8.682;2022-10-16T06:08:39;13.60;99.90
11025;DHT22;22890;51.820;8.682;2022-10-16T06:11:08;13.60;99.90
11025;DHT22;22890;51.820;8.682;2022-10-16T06:13:35;13.60;99.90
11025;DHT22;22890;51.820;8.682;2022-10-16T06:16:02;13.60;99.90
11025;DHT22;22890;51.820;8.682;2022-10-16T06:18:30;13.60;99.90
11025;DHT22;22890;51.820;8.682;2022-10-16T06:20:57;13.60;99.90
11025;DHT22;22890;51.820;8.682;2022-10-16T06:23:25;13.70;99.90
11025;DHT22;22890;51.820;8.682;2022-10-16T06:25:54;13.70;99.90
11025;DHT22;22890;51.820;8.682;2022-10-16T06:28:21;13.70;99.90
11025;DHT22;22890;51.820;8.682;2022-10-16T06:30:47;13.70;99.90
11025;DHT22;22890;51.820;8.682;2022-10-16T06:33:14;13.70;99.90
11025;DHT22;22890;51.820;8.682;2022-10-16T06:35:40;13.80;99.90
11025;DHT22;22890;51.820;8.682;2022-10-16T06:38:07;13.80;99.90
11025;DHT22;22890;51.820;8.682;2022-10-16T06:40:34;13.80;99.90
11025;DHT22;22890;51.820;8.682;2022-10-16T06:43:00;13.80;99.90
11025;DHT22;22890;51.820;8.682;2022-10-16T06:45:27;13.80;99.90
11025;DHT22;22890;51.820;8.682;2022-10-16T06:47:53;13.80;99.90
11025;DHT22;22890;51.820;8.682;2022-10-16T06:50:20;13.90;99.90
11025;DHT22;22890;51.820;8.682;2022-10-16T06:52:47;13.90;99.90
11025;DHT22;22890;51.820;8.682;2022-10-16T06:55:13;13.90;99.90
11025;DHT22;22890;51.820;8.682;2022-10-16T06:57:41;14.00;99.90
11025;DHT22;22890;51.820;8.682;2022-10-16T07:00:08;14.00;99.90
11025;DHT22;22890;51.820;8.682;2022-10-16T07:02:34;14.00;99.90
11025;DHT22;22890;51.820;8.682;2022-10-16T07:05:01;14.00;99.90
11025;DHT22;22890;51.820;8.682;2022-10-16T07:07:28;14.00;99.90
11025;DHT22;22890;51.820;8.682;2022-10-16T07:09:54;14.20;99.90
11025;DHT22;22890;51.820;8.682;2022-10-16T07:12:21;14.10;99.90
11025;DHT22;22890;51.820;8.682;2022-10-16T07:14:49;14.10;99.90
11025;DHT22;22890;51.820;8.682;2022-10-16T07:17:18;14.20;99.90
11025;DHT22;22890;51.820;8.682;2022-10-16T07:19:45;14.20;99.90
11025;DHT22;22890;51.820;8.682;2022-10-16T07:22:11;14.20;99.90
11025;DHT22;22890;51.820;8.682;2022-10-16T07:24:38;14.20;99.90
11025;DHT22;22890;51.820;8.682;2022-10-16T07:27:04;14.30;99.90
11025;DHT22;22890;51.820;8.682;2022-10-16T07:29:31;14.30;99.90
11025;DHT22;22890;51.820;8.682;2022-10-16T07:31:58;14.30;99.90
11025;DHT22;22890;51.820;8.682;2022-10-16T07:34:25;14.40;99.90
11025;DHT22;22890;51.820;8.682;2022-10-16T07:36:52;14.40;99.90
11025;DHT22;22890;51.820;8.682;2022-10-16T07:39:19;14.50;99.90
11025;DHT22;22890;51.820;8.682;2022-10-16T07:41:46;14.50;99.90
11025;DHT22;22890;51.820;8.682;2022-10-16T07:44:15;14.50;99.90
11025;DHT22;22890;51.820;8.682;2022-10-16T07:46:42;14.60;99.90
11025;DHT22;22890;51.820;8.682;2022-10-16T07:49:08;14.60;99.90
11025;DHT22;22890;51.820;8.682;2022-10-16T07:51:35;11.90;99.90
11025;DHT22;22890;51.820;8.682;2022-10-16T07:54:02;14.70;99.90
11025;DHT22;22890;51.820;8.682;2022-10-16T07:56:30;14.80;99.90
11025;DHT22;22890;51.820;8.682;2022-10-16T07:58:57;14.80;99.90
11025;DHT22;22890;51.820;8.682;2022-10-16T08:01:24;14.90;99.90
11025;DHT22;22890;51.820;8.682;2022-10-16T08:03:51;15.00;99.90
11025;DHT22;22890;51.820;8.682;2022-10-16T08:06:20;15.10;99.90
11025;DHT22;22890;51.820;8.682;2022-10-16T08:08:54;15.10;99.90
11025;DHT22;22890;51.820;8.682;2022-10-16T08:11:21;15.20;99.90
11025;DHT22;22890;51.820;8.682;2022-10-16T08:13:48;15.20;99.90
11025;DHT22;22890;51.820;8.682;2022-10-16T08:16:14;15.30;99.90
11025;DHT22;22890;51.820;8.682;2022-10-16T08:18:41;15.30;99.90
11025;DHT22;22890;51.820;8.682;2022-10-16T08:21:13;15.30;99.90
11025;DHT22;22890;51.820;8.682;2022-10-16T08:23:47;15.30;99.90
11025;DHT22;22890;51.820;8.682;2022-10-16T08:26:22;15.30;99.90
11025;DHT22;22890;51.820;8.682;2022-10-16T08:28:52;15.30;99.90
11025;DHT22;22890;51.820;8.682;2022-10-16T08:31:19;15.30;99.90
11025;DHT22;22890;51.820;8.682;2022-10-16T08:33:46;15.30;99.90
11025;DHT22;22890;51.820;8.682;2022-10-16T08:36:15;15.40;99.90
11025;DHT22;22890;51.820;8.682;2022-10-16T08:38:42;15.40;99.90
11025;DHT22;22890;51.820;8.682;2022-10-16T08:49:31;15.50;99.90
11025;DHT22;22890;51.820;8.682;2022-10-16T08:51:58;15.60;99.90
11025;DHT22;22890;51.820;8.682;2022-10-16T08:54:28;15.70;99.90
11025;DHT22;22890;51.820;8.682;2022-10-16T08:57:19;15.70;99.90
11025;DHT22;22890;51.820;8.682;2022-10-16T08:59:49;15.80;99.90
11025;DHT22;22890;51.820;8.682;2022-10-16T09:08:29;16.10;99.90
11025;DHT22;22890;51.820;8.682;2022-10-16T09:14:01;16.20;99.90
11025;DHT22;22890;51.820;8.682;2022-10-16T09:16:38;16.20;99.90
11025;DHT22;22890;51.820;8.682;2022-10-16T09:19:22;16.30;99.90
11025;DHT22;22890;51.820;8.682;2022-10-16T09:21:49;16.30;99.90
11025;DHT22;22890;51.820;8.682;2022-10-16T09:24:19;16.40;99.90
11025;DHT22;22890;51.820;8.682;2022-10-16T09:26:52;16.40;99.90
11025;DHT22;22890;51.820;8.682;2022-10-16T09:29:21;16.40;99.90
11025;DHT22;22890;51.820;8.682;2022-10-16T09:31:48;16.50;99.90
11025;DHT22;22890;51.820;8.682;2022-10-16T09:34:32;16.60;99.90
11025;DHT22;22890;51.820;8.682;2022-10-16T09:37:03;16.60;99.90
11025;DHT22;22890;51.820;8.682;2022-10-16T09:39:30;16.60;99.90
11025;DHT22;22890;51.820;8.682;2022-10-16T09:41:57;16.70;99.90
11025;DHT22;22890;51.820;8.682;2022-10-16T09:44:29;16.70;99.90
11025;DHT22;22890;51.820;8.682;2022-10-16T09:47:16;16.70;99.90
11025;DHT22;22890;51.820;8.682;2022-10-16T09:52:19;16.60;99.90
11025;DHT22;22890;51.820;8.682;2022-10-16T09:54:51;16.60;99.90
11025;DHT22;22890;51.820;8.682;2022-10-16T09:57:18;16.60;99.90
11025;DHT22;22890;51.820;8.682;2022-10-16T09:59:50;16.60;99.90
11025;DHT22;22890;51.820;8.682;2022-10-16T10:02:20;16.70;99.90
11025;DHT22;22890;51.820;8.682;2022-10-16T10:04:53;16.70;99.90
11025;DHT22;22890;51.820;8.682;2022-10-16T10:07:30;16.80;99.90
11025;DHT22;22890;51.820;8.682;2022-10-16T10:10:02;16.80;99.90
11025;DHT22;22890;51.820;8.682;2022-10-16T10:12:30;16.90;99.90
11025;DHT22;22890;51.820;8.682;2022-10-16T10:15:06;16.90;99.90
11025;DHT22;22890;51.820;8.682;2022-10-16T10:17:33;17.00;99.90
11025;DHT22;22890;51.820;8.682;2022-10-16T10:20:30;17.00;99.90
11025;DHT22;22890;51.820;8.682;2022-10-16T10:22:59;17.00;99.90
11025;DHT22;22890;51.820;8.682;2022-10-16T10:25:54;17.00;99.90
11025;DHT22;22890;51.820;8.682;2022-10-16T10:28:45;17.10;99.90
11025;DHT22;22890;51.820;8.682;2022-10-16T10:31:27;17.20;99.90
11025;DHT22;22890;51.820;8.682;2022-10-16T10:36:43;17.20;99.90
11025;DHT22;22890;51.820;8.682;2022-10-16T10:39:25;17.20;99.90
11025;DHT22;22890;51.820;8.682;2022-10-16T10:44:56;17.30;99.90
11025;DHT22;22890;51.820;8.682;2022-10-16T10:47:56;17.40;99.90
11025;DHT22;22890;51.820;8.682;2022-10-16T10:50:42;17.30;99.90
11025;DHT22;22890;51.820;8.682;2022-10-16T11:02:00;17.60;99.90
11025;DHT22;22890;51.820;8.682;2022-10-16T11:04:41;17.60;99.90
11025;DHT22;22890;51.820;8.682;2022-10-16T11:07:16;17.70;99.90
11025;DHT22;22890;51.820;8.682;2022-10-16T11:09:47;17.70;99.90
11025;DHT22;22890;51.820;8.682;2022-10-16T11:12:44;17.80;99.90
11025;DHT22;22890;51.820;8.682;2022-10-16T11:15:17;17.80;99.90
11025;DHT22;22890;51.820;8.682;2022-10-16T11:17:59;17.80;99.90
11025;DHT22;22890;51.820;8.682;2022-10-16T11:20:29;17.80;99.90
11025;DHT22;22890;51.820;8.682;2022-10-16T11:25:32;17.80;99.90
11025;DHT22;22890;51.820;8.682;2022-10-16T11:28:18;17.80;99.90
11025;DHT22;22890;51.820;8.682;2022-10-16T11:30:57;17.70;99.90
11025;DHT22;22890;51.820;8.682;2022-10-16T11:33:42;17.80;99.90
11025;DHT22;22890;51.820;8.682;2022-10-16T11:36:22;17.70;99.90
11025;DHT22;22890;51.820;8.682;2022-10-16T11:41:53;17.70;99.90
11025;DHT22;22890;51.820;8.682;2022-10-16T11:44:27;17.70;99.90
11025;DHT22;22890;51.820;8.682;2022-10-16T11:47:23;17.60;99.90
11025;DHT22;22890;51.820;8.682;2022-10-16T11:50:34;17.60;99.90
11025;DHT22;22890;51.820;8.682;2022-10-16T11:55:50;17.70;99.90
11025;DHT22;22890;51.820;8.682;2022-10-16T11:58:45;17.80;99.90
11025;DHT22;22890;51.820;8.682;2022-10-16T12:04:11;17.90;99.90
11025;DHT22;22890;51.820;8.682;2022-10-16T12:06:47;18.00;99.90
11025;DHT22;22890;51.820;8.682;2022-10-16T12:09:25;18.00;99.90
11025;DHT22;22890;51.820;8.682;2022-10-16T12:11:53;18.10;99.90
11025;DHT22;22890;51.820;8.682;2022-10-16T12:20:23;18.30;99.90
11025;DHT22;22890;51.820;8.682;2022-10-16T12:22:58;18.30;99.90
11025;DHT22;22890;51.820;8.682;2022-10-16T12:25:31;18.30;99.90
11025;DHT22;22890;51.820;8.682;2022-10-16T12:28:06;18.40;99.90
11025;DHT22;22890;51.820;8.682;2022-10-16T12:30:35;18.40;99.90
11025;DHT22;22890;51.820;8.682;2022-10-16T12:33:06;18.40;99.90
11025;DHT22;22890;51.820;8.682;2022-10-16T12:35:35;18.40;99.90
11025;DHT22;22890;51.820;8.682;2022-10-16T12:38:36;17.20;99.90
11025;DHT22;22890;51.820;8.682;2022-10-16T12:41:06;18.40;99.90
11025;DHT22;22890;51.820;8.682;2022-10-16T12:43:43;18.40;99.90
11025;DHT22;22890;51.820;8.682;2022-10-16T12:48:38;18.50;99.90
11025;DHT22;22890;51.820;8.682;2022-10-16T12:59:04;18.50;99.90
11025;DHT22;22890;51.820;8.682;2022-10-16T13:21:31;18.50;99.90
11025;DHT22;22890;51.820;8.682;2022-10-16T13:24:11;18.50;99.90
11025;DHT22;22890;51.820;8.682;2022-10-16T13:27:01;18.50;99.90
11025;DHT22;22890;51.820;8.682;2022-10-16T13:29:34;18.50;99.90
11025;DHT22;22890;51.820;8.682;2022-10-16T13:32:07;18.60;99.90
11025;DHT22;22890;51.820;8.682;2022-10-16T13:34:45;18.60;99.90
11025;DHT22;22890;51.820;8.682;2022-10-16T13:37:20;18.60;99.90
11025;DHT22;22890;51.820;8.682;2022-10-16T13:39:48;17.10;99.90
11025;DHT22;22890;51.820;8.682;2022-10-16T13:42:24;18.60;99.90
11025;DHT22;22890;51.820;8.682;2022-10-16T13:44:55;18.60;99.90
11025;DHT22;22890;51.820;8.682;2022-10-16T13:47:25;18.60;99.90
11025;DHT22;22890;51.820;8.682;2022-10-16T13:50:04;18.60;99.90
11025;DHT22;22890;51.820;8.682;2022-10-16T13:52:31;18.70;99.90
11025;DHT22;22890;51.820;8.682;2022-10-16T13:54:58;16.80;99.90
11025;DHT22;22890;51.820;8.682;2022-10-16T13:57:28;18.70;99.90
11025;DHT22;22890;51.820;8.682;2022-10-16T13:59:55;18.60;99.90
11025;DHT22;22890;51.820;8.682;2022-10-16T14:02:36;18.60;99.90
11025;DHT22;22890;51.820;8.682;2022-10-16T14:05:08;21.50;99.90
11025;DHT22;22890;51.820;8.682;2022-10-16T14:07:37;18.60;99.90
11025;DHT22;22890;51.820;8.682;2022-10-16T14:10:07;18.60;99.90
11025;DHT22;22890;51.820;8.682;2022-10-16T14:12:44;18.60;99.90
11025;DHT22;22890;51.820;8.682;2022-10-16T14:15:18;18.60;99.90
11025;DHT22;22890;51.820;8.682;2022-10-16T14:17:50;18.60;99.90
11025;DHT22;22890;51.820;8.682;2022-10-16T14:20:18;18.60;99.90
11025;DHT22;22890;51.820;8.682;2022-10-16T14:22:45;18.60;99.90
11025;DHT22;22890;51.820;8.682;2022-10-16T14:28:03;18.60;99.90
11025;DHT22;22890;51.820;8.682;2022-10-16T14:30:33;18.60;99.90
11025;DHT22;22890;51.820;8.682;2022-10-16T14:33:38;18.60;99.90
11025;DHT22;22890;51.820;8.682;2022-10-16T14:36:05;18.60;99.90
11025;DHT22;22890;51.820;8.682;2022-10-16T14:38:33;18.60;99.90
11025;DHT22;22890;51.820;8.682;2022-10-16T14:41:00;18.60;99.90
11025;DHT22;22890;51.820;8.682;2022-10-16T14:43:36;18.60;99.90
11025;DHT22;22890;51.820;8.682;2022-10-16T14:46:09;18.60;99.90
11025;DHT22;22890;51.820;8.682;2022-10-16T14:48:44;18.60;99.90
11025;DHT22;22890;51.820;8.682;2022-10-16T14:51:19;18.60;99.90
11025;DHT22;22890;51.820;8.682;2022-10-16T14:53:46;18.60;99.90
11025;DHT22;22890;51.820;8.682;2022-10-16T14:56:24;18.60;99.90
11025;DHT22;22890;51.820;8.682;2022-10-16T14:58:52;18.60;99.90
11025;DHT22;22890;51.820;8.682;2022-10-16T15:01:19;18.60;99.90
11025;DHT22;22890;51.820;8.682;2022-10-16T15:03:46;18.50;99.90
11025;DHT22;22890;51.820;8.682;2022-10-16T15:06:16;18.50;99.90
11025;DHT22;22890;51.820;8.682;2022-10-16T15:08:43;18.50;99.90
11025;DHT22;22890;51.820;8.682;2022-10-16T15:11:13;18.50;99.90
11025;DHT22;22890;51.820;8.682;2022-10-16T15:13:41;18.50;99.90
11025;DHT22;22890;51.820;8.682;2022-10-16T15:16:13;18.40;99.90
11025;DHT22;22890;51.820;8.682;2022-10-16T15:18:39;18.40;99.90
11025;DHT22;22890;51.820;8.682;2022-10-16T15:21:06;18.40;99.90
11025;DHT22;22890;51.820;8.682;2022-10-16T15:23:33;18.30;99.90
11025;DHT22;22890;51.820;8.682;2022-10-16T15:26:00;18.30;99.90
11025;DHT22;22890;51.820;8.682;2022-10-16T15:28:26;18.20;99.90
11025;DHT22;22890;51.820;8.682;2022-10-16T15:30:55;18.20;99.90
11025;DHT22;22890;51.820;8.682;2022-10-16T15:33:26;18.20;99.90
11025;DHT22;22890;51.820;8.682;2022-10-16T15:35:55;18.20;99.90
11025;DHT22;22890;51.820;8.682;2022-10-16T15:38:22;18.10;99.90
11025;DHT22;22890;51.820;8.682;2022-10-16T15:40:49;18.10;99.90
11025;DHT22;22890;51.820;8.682;2022-10-16T15:43:17;18.00;99.90
11025;DHT22;22890;51.820;8.682;2022-10-16T15:45:59;18.00;99.90
11025;DHT22;22890;51.820;8.682;2022-10-16T15:48:27;18.00;99.90
11025;DHT22;22890;51.820;8.682;2022-10-16T15:50:54;17.90;99.90
11025;DHT22;22890;51.820;8.682;2022-10-16T15:53:21;17.90;99.90
11025;DHT22;22890;51.820;8.682;2022-10-16T15:55:48;17.80;99.90
11025;DHT22;22890;51.820;8.682;2022-10-16T15:58:15;17.80;99.90
11025;DHT22;22890;51.820;8.682;2022-10-16T16:00:42;17.70;99.90
11025;DHT22;22890;51.820;8.682;2022-10-16T16:03:08;17.60;99.90
11025;DHT22;22890;51.820;8.682;2022-10-16T16:05:38;17.60;99.90
11025;DHT22;22890;51.820;8.682;2022-10-16T16:08:11;17.50;99.90
11025;DHT22;22890;51.820;8.682;2022-10-16T16:10:38;17.40;99.90
11025;DHT22;22890;51.820;8.682;2022-10-16T16:13:05;17.30;99.90
11025;DHT22;22890;51.820;8.682;2022-10-16T16:15:31;17.30;99.90
11025;DHT22;22890;51.820;8.682;2022-10-16T16:17:58;17.30;99.90
11025;DHT22;22890;51.820;8.682;2022-10-16T16:20:25;17.20;99.90
11025;DHT22;22890;51.820;8.682;2022-10-16T16:22:51;17.20;99.90
11025;DHT22;22890;51.820;8.682;2022-10-16T16:25:18;17.20;99.90
11025;DHT22;22890;51.820;8.682;2022-10-16T16:27:45;15.20;99.90
11025;DHT22;22890;51.820;8.682;2022-10-16T16:30:11;17.10;99.90
11025;DHT22;22890;51.820;8.682;2022-10-16T16:32:45;17.00;99.90
11025;DHT22;22890;51.820;8.682;2022-10-16T16:35:12;17.00;99.90
11025;DHT22;22890;51.820;8.682;2022-10-16T16:37:38;16.90;99.90
11025;DHT22;22890;51.820;8.682;2022-10-16T16:40:05;16.90;99.90
11025;DHT22;22890;51.820;8.682;2022-10-16T16:42:32;16.80;99.90
11025;DHT22;22890;51.820;8.682;2022-10-16T16:44:59;16.80;99.90
11025;DHT22;22890;51.820;8.682;2022-10-16T16:47:26;16.70;99.90
11025;DHT22;22890;51.820;8.682;2022-10-16T16:49:53;16.60;99.90
11025;DHT22;22890;51.820;8.682;2022-10-16T16:52:20;16.70;99.90
11025;DHT22;22890;51.820;8.682;2022-10-16T16:54:47;16.60;99.90
11025;DHT22;22890;51.820;8.682;2022-10-16T16:57:19;16.60;99.90
11025;DHT22;22890;51.820;8.682;2022-10-16T16:59:46;16.60;99.90
11025;DHT22;22890;51.820;8.682;2022-10-16T17:02:12;14.30;99.90
11025;DHT22;22890;51.820;8.682;2022-10-16T17:04:39;16.50;99.90
11025;DHT22;22890;51.820;8.682;2022-10-16T17:07:06;16.50;99.90
11025;DHT22;22890;51.820;8.682;2022-10-16T17:09:33;16.50;99.90
11025;DHT22;22890;51.820;8.682;2022-10-16T17:11:59;16.40;99.90
11025;DHT22;22890;51.820;8.682;2022-10-16T17:14:26;16.40;99.90
11025;DHT22;22890;51.820;8.682;2022-10-16T17:16:52;16.30;99.90
11025;DHT22;22890;51.820;8.682;2022-10-16T17:19:19;16.30;99.90
11025;DHT22;22890;51.820;8.682;2022-10-16T17:21:51;16.20;99.90
11025;DHT22;22890;51.820;8.682;2022-10-16T17:24:18;16.20;99.90
11025;DHT22;22890;51.820;8.682;2022-10-16T17:26:46;16.20;99.90
11025;DHT22;22890;51.820;8.682;2022-10-16T17:29:16;16.20;99.90
11025;DHT22;22890;51.820;8.682;2022-10-16T17:31:44;16.20;99.90